Time;durP1;ratioP1;P1;durP2;ratioP2;P2;SDS_P1;SDS_P2;PMS_P1;PMS_P2;Temp;Humidity;BMP_temperature;BMP_pressure;BME280_temperature;BME280_humidity;BME280_pressure;Samples;Min_cycle;Max_cycle;Signal;HPM_P1;HPM_P2
2021/07/02 00:00:17;;;;;;;0.50;0.50;;;;;;;13.82;74.08;97042.91;29395;229;63005;-60
2021/07/02 00:00:49;;;;;;;0.40;0.40;;;;;;;13.82;74.14;97043.72;29395;206;63009;-59
2021/07/02 00:01:20;;;;;;;0.40;0.40;;;;;;;13.82;74.42;97038.28;29395;219;63005;-58
2021/07/02 00:01:54;;;;;;;0.50;0.50;;;;;;;13.86;73.96;97039.22;29395;197;63020;-59
2021/07/02 00:02:26;;;;;;;0.40;0.40;;;;;;;13.86;74.07;97047.41;29395;239;63005;-59
2021/07/02 00:02:57;;;;;;;0.45;0.45;;;;;;;13.87;73.78;97040.84;29395;277;63009;-57
2021/07/02 00:03:28;;;;;;;0.50;0.50;;;;;;;13.89;73.77;97041.34;29394;213;64009;-59
2021/07/02 00:04:01;;;;;;;0.50;0.50;;;;;;;13.88;73.54;97041.66;29395;207;63009;-60
2021/07/02 00:04:33;;;;;;;0.50;0.50;;;;;;;13.86;73.84;97047.41;29395;265;63004;-59
2021/07/02 00:05:06;;;;;;;0.50;0.50;;;;;;;13.85;74.03;97048.56;29395;208;63009;-59
2021/07/02 00:05:37;;;;;;;0.50;0.50;;;;;;;13.82;74.03;97046.44;29395;249;63004;-59
2021/07/02 00:06:09;;;;;;;0.40;0.40;;;;;;;13.80;74.27;97040.50;29395;240;63009;-59
2021/07/02 00:06:40;;;;;;;0.40;0.40;;;;;;;13.80;74.49;97034.25;29395;274;63008;-60
2021/07/02 00:07:11;;;;;;;0.50;0.50;;;;;;;13.81;74.17;97039.38;29395;229;63008;-61
2021/07/02 00:07:42;;;;;;;0.50;0.50;;;;;;;13.79;74.42;97036.16;29395;237;63005;-57
2021/07/02 00:08:13;;;;;;;0.50;0.50;;;;;;;13.79;74.52;97044.34;29394;213;64014;-57
2021/07/02 00:08:45;;;;;;;0.40;0.40;;;;;;;13.78;74.62;97040.00;29395;241;63005;-59
2021/07/02 00:09:16;;;;;;;0.40;0.40;;;;;;;13.77;74.66;97038.38;29395;243;63009;-58
2021/07/02 00:09:47;;;;;;;0.40;0.40;;;;;;;13.73;74.83;97040.12;29395;212;63005;-58
2021/07/02 00:10:20;;;;;;;0.50;0.50;;;;;;;13.72;74.70;97041.22;29395;209;63017;-60
2021/07/02 00:10:52;;;;;;;0.50;0.50;;;;;;;13.71;74.94;97036.91;29395;224;63005;-59
2021/07/02 00:11:24;;;;;;;0.50;0.50;;;;;;;13.70;75.13;97040.72;29395;254;63009;-60
2021/07/02 00:11:55;;;;;;;0.50;0.50;;;;;;;13.70;75.22;97029.81;29395;197;63004;-60
2021/07/02 00:12:27;;;;;;;0.50;0.50;;;;;;;13.68;75.25;97038.31;29395;300;63009;-59
2021/07/02 00:12:58;;;;;;;0.50;0.50;;;;;;;13.69;75.31;97039.13;29394;199;63994;-59
2021/07/02 00:13:29;;;;;;;0.50;0.50;;;;;;;13.70;75.00;97033.38;29394;206;64013;-58
2021/07/02 00:14:01;;;;;;;0.50;0.50;;;;;;;13.73;75.10;97030.00;29395;244;63004;-59
2021/07/02 00:14:33;;;;;;;0.50;0.50;;;;;;;13.73;74.75;97031.94;29395;265;63008;-59
2021/07/02 00:15:05;;;;;;;0.50;0.50;;;;;;;13.71;75.10;97036.91;29395;271;63017;-59
2021/07/02 00:15:36;;;;;;;0.40;0.40;;;;;;;13.71;74.86;97034.16;29395;232;63009;-59
2021/07/02 00:16:08;;;;;;;0.50;0.50;;;;;;;13.69;75.08;97034.47;29395;273;63005;-59
2021/07/02 00:16:39;;;;;;;0.40;0.40;;;;;;;13.68;75.06;97037.50;29395;238;63009;-60
2021/07/02 00:17:10;;;;;;;0.50;0.50;;;;;;;13.68;75.12;97032.06;29395;213;63005;-58
2021/07/02 00:17:42;;;;;;;0.50;0.50;;;;;;;13.66;75.07;97032.38;29395;216;63009;-60
2021/07/02 00:18:13;;;;;;;0.50;0.50;;;;;;;13.67;75.53;97030.44;29395;198;63005;-59
2021/07/02 00:18:45;;;;;;;0.40;0.40;;;;;;;13.67;75.15;97031.25;29394;275;64013;-60
2021/07/02 00:19:16;;;;;;;0.45;0.45;;;;;;;13.67;75.28;97030.44;29395;243;63005;-59
2021/07/02 00:19:47;;;;;;;0.50;0.50;;;;;;;13.67;75.56;97027.72;29395;205;63009;-59
2021/07/02 00:20:18;;;;;;;0.50;0.50;;;;;;;13.66;75.87;97035.09;29395;202;63004;-59
2021/07/02 00:20:49;;;;;;;0.50;0.50;;;;;;;13.65;75.74;97029.94;29395;226;63020;-60
2021/07/02 00:21:23;;;;;;;0.50;0.50;;;;;;;13.63;75.94;97030.25;29395;211;63004;-59
2021/07/02 00:21:55;;;;;;;0.50;0.50;;;;;;;13.63;75.92;97024.00;29395;260;63008;-60
2021/07/02 00:22:27;;;;;;;0.50;0.50;;;;;;;13.61;75.85;97028.94;29395;226;63004;-60
2021/07/02 00:23:01;;;;;;;0.50;0.50;;;;;;;13.61;76.00;97026.22;29395;198;63009;-60
2021/07/02 00:23:33;;;;;;;0.50;0.50;;;;;;;13.64;75.89;97028.34;29395;240;63017;-59
2021/07/02 00:24:06;;;;;;;0.50;0.50;;;;;;;13.63;75.55;97030.25;29394;283;64014;-60
2021/07/02 00:24:37;;;;;;;0.40;0.40;;;;;;;13.62;75.98;97033.28;29395;260;63005;-59
2021/07/02 00:25:10;;;;;;;0.50;0.50;;;;;;;13.61;76.12;97031.66;29395;224;63009;-60
2021/07/02 00:25:41;;;;;;;0.50;0.50;;;;;;;13.59;76.65;97033.91;29395;235;63005;-59
2021/07/02 00:26:12;;;;;;;0.50;0.50;;;;;;;13.56;76.74;97031.78;29395;204;63009;-59
2021/07/02 00:26:43;;;;;;;0.50;0.50;;;;;;;13.55;76.85;97027.44;29395;222;63008;-59
2021/07/02 00:27:14;;;;;;;0.50;0.50;;;;;;;13.54;76.68;97029.37;29395;269;63009;-59
2021/07/02 00:27:45;;;;;;;0.40;0.40;;;;;;;13.52;76.87;97025.34;29395;240;63004;-60
2021/07/02 00:28:20;;;;;;;0.50;0.50;;;;;;;13.51;76.53;97026.47;29395;243;63009;-59
2021/07/02 00:28:52;;;;;;;0.50;0.50;;;;;;;13.50;76.86;97025.69;29395;287;63004;-57
2021/07/02 00:29:24;;;;;;;0.50;0.50;;;;;;;13.49;76.78;97028.72;29394;208;64013;-59
2021/07/02 00:29:56;;;;;;;0.50;0.50;;;;;;;13.49;76.92;97025.97;29395;196;63004;-58
2021/07/02 00:30:27;;;;;;;0.50;0.50;;;;;;;13.49;76.64;97028.72;29395;204;63009;-59
2021/07/02 00:30:58;;;;;;;0.43;0.43;;;;;;;13.51;76.44;97027.28;29394;359;64001;-59
2021/07/02 00:31:30;;;;;;;0.50;0.50;;;;;;;13.52;76.09;97026.13;29395;221;63009;-58
2021/07/02 00:32:01;;;;;;;0.50;0.50;;;;;;;13.52;76.22;97022.59;29395;226;63008;-60
2021/07/02 00:32:33;;;;;;;0.50;0.50;;;;;;;13.53;76.45;97024.22;29395;206;63009;-59
2021/07/02 00:33:04;;;;;;;0.50;0.50;;;;;;;13.50;76.96;97027.59;29395;251;63005;-59
2021/07/02 00:33:36;;;;;;;0.50;0.50;;;;;;;13.48;76.87;97027.91;29395;197;63009;-59
2021/07/02 00:34:07;;;;;;;0.50;0.50;;;;;;;13.50;76.91;97030.31;29395;248;63010;-59
2021/07/02 00:34:38;;;;;;;0.50;0.50;;;;;;;13.52;76.37;97025.34;29395;204;63009;-59
2021/07/02 00:35:11;;;;;;;0.50;0.50;;;;;;;13.51;76.53;97018.31;29394;283;64009;-59
2021/07/02 00:35:42;;;;;;;0.50;0.50;;;;;;;13.50;76.30;97030.31;29395;255;63009;-59
2021/07/02 00:36:13;;;;;;;0.50;0.50;;;;;;;13.49;76.38;97023.25;29395;222;63004;-59
2021/07/02 00:36:44;;;;;;;0.50;0.50;;;;;;;13.49;76.26;97025.97;29394;246;64013;-59
2021/07/02 00:37:16;;;;;;;0.50;0.50;;;;;;;13.48;76.57;97027.09;29395;249;63004;-59
2021/07/02 00:37:47;;;;;;;0.50;0.50;;;;;;;13.47;76.75;97028.22;29395;215;63009;-58
2021/07/02 00:38:18;;;;;;;0.50;0.50;;;;;;;13.46;76.85;97024.69;29395;221;63005;-59
2021/07/02 00:38:49;;;;;;;0.50;0.50;;;;;;;13.52;76.21;97022.59;29395;249;63009;-59
2021/07/02 00:39:20;;;;;;;0.50;0.50;;;;;;;13.56;76.08;97020.87;29395;199;63005;-58
2021/07/02 00:39:51;;;;;;;0.40;0.40;;;;;;;13.56;75.81;97024.41;29395;214;63009;-59
2021/07/02 00:40:23;;;;;;;0.50;0.50;;;;;;;13.54;75.89;97025.84;29394;249;64009;-59
2021/07/02 00:40:54;;;;;;;0.40;0.40;;;;;;;13.52;75.95;97023.41;29394;275;64013;-59
2021/07/02 00:41:25;;;;;;;0.43;0.43;;;;;;;13.52;76.52;97028.06;29395;205;63005;-59
2021/07/02 00:41:56;;;;;;;0.50;0.50;;;;;;;13.50;76.41;97016.69;29395;237;63012;-59
2021/07/02 00:42:29;;;;;;;0.50;0.50;;;;;;;13.49;76.39;97017.81;29395;248;63017;-59
2021/07/02 00:43:00;;;;;;;0.50;0.50;;;;;;;13.49;76.20;97023.25;29395;196;63009;-59
2021/07/02 00:43:31;;;;;;;0.40;0.40;;;;;;;13.50;76.40;97019.41;29395;197;63004;-59
2021/07/02 00:44:03;;;;;;;0.45;0.45;;;;;;;13.50;76.17;97022.13;29395;208;63009;-59
2021/07/02 00:44:47;;;;;;;0.45;0.45;;;;;;;13.52;76.14;97025.34;29394;202;64008;-60
2021/07/02 00:45:19;;;;;;;0.40;0.40;;;;;;;13.50;76.06;97025.69;29395;202;63009;-59
2021/07/02 00:45:50;;;;;;;0.50;0.50;;;;;;;13.50;76.12;97019.41;29394;207;64001;-59
2021/07/02 00:46:22;;;;;;;0.50;0.50;;;;;;;13.50;76.02;97019.41;29395;197;63009;-59
2021/07/02 00:46:53;;;;;;;0.50;0.50;;;;;;;13.48;76.46;97022.44;29395;269;63005;-59
2021/07/02 00:47:25;;;;;;;0.50;0.50;;;;;;;13.47;76.17;97014.56;29395;202;63009;-59
2021/07/02 00:47:56;;;;;;;0.40;0.40;;;;;;;13.45;76.37;97022.25;29395;199;63005;-59
2021/07/02 00:48:27;;;;;;;0.40;0.40;;;;;;;13.45;76.72;97016.81;29395;295;63005;-59
2021/07/02 00:48:58;;;;;;;0.50;0.50;;;;;;;13.44;76.65;97010.53;29395;239;63010;-59
2021/07/02 00:49:29;;;;;;;0.50;0.50;;;;;;;13.44;76.65;97015.19;29395;208;63009;-59
2021/07/02 00:50:02;;;;;;;0.50;0.50;;;;;;;13.46;76.93;97018.41;29395;197;63004;-59
2021/07/02 00:50:33;;;;;;;0.45;0.45;;;;;;;13.44;76.51;97021.44;29394;204;64013;-58
2021/07/02 00:51:04;;;;;;;0.50;0.50;;;;;;;13.44;76.72;97023.38;29395;238;63004;-58
2021/07/02 00:51:36;;;;;;;0.50;0.50;;;;;;;13.41;76.67;97013.87;29395;202;63009;-59
2021/07/02 00:52:10;;;;;;;0.40;0.40;;;;;;;13.39;77.50;97019.66;29395;240;63004;-59
2021/07/02 00:52:42;;;;;;;0.40;0.40;;;;;;;13.37;77.04;97016.41;29395;249;63008;-58
2021/07/02 00:53:13;;;;;;;0.40;0.40;;;;;;;13.38;77.11;97015.31;29395;258;63005;-58
2021/07/02 00:53:46;;;;;;;0.50;0.50;;;;;;;13.39;76.98;97014.19;29395;213;63009;-59
2021/07/02 00:54:17;;;;;;;0.50;0.50;;;;;;;13.41;77.05;97011.97;29395;232;63005;-60
2021/07/02 00:54:50;;;;;;;0.50;0.50;;;;;;;13.45;76.25;97014.06;29395;228;63009;-58
2021/07/02 00:55:22;;;;;;;0.50;0.50;;;;;;;13.44;76.50;97017.91;29395;198;63005;-59
2021/07/02 00:55:54;;;;;;;0.50;0.50;;;;;;;13.42;76.39;97012.78;29394;284;64013;-60
2021/07/02 00:56:28;;;;;;;0.50;0.50;;;;;;;13.41;76.84;97017.41;29395;202;63004;-60
2021/07/02 00:57:02;;;;;;;0.50;0.50;;;;;;;13.39;76.78;97006.00;29395;237;63014;-58
2021/07/02 00:57:36;;;;;;;0.50;0.50;;;;;;;13.37;76.77;97010.97;29395;210;63004;-59
2021/07/02 00:58:07;;;;;;;0.40;0.40;;;;;;;13.35;77.48;97015.91;29394;211;64013;-59
2021/07/02 00:58:38;;;;;;;0.40;0.40;;;;;;;13.33;77.29;97015.41;29395;248;63004;-60
2021/07/02 00:59:09;;;;;;;0.40;0.40;;;;;;;13.32;77.29;97013.81;29395;244;63008;-59
2021/07/02 00:59:42;;;;;;;0.40;0.40;;;;;;;13.31;77.46;97009.47;29394;196;64008;-59
2021/07/02 01:00:14;;;;;;;0.50;0.50;;;;;;;13.31;77.61;97014.91;29395;230;63008;-60
2021/07/02 01:00:48;;;;;;;0.50;0.50;;;;;;;13.31;77.96;97011.38;29395;248;63005;-59
2021/07/02 01:01:20;;;;;;;0.50;0.50;;;;;;;13.31;77.69;97012.19;29395;214;63009;-59
2021/07/02 01:01:52;;;;;;;0.40;0.40;;;;;;;13.31;77.75;97006.75;29395;245;63005;-57
2021/07/02 01:02:23;;;;;;;0.47;0.47;;;;;;;13.31;77.82;97012.19;29395;246;63009;-60
2021/07/02 01:02:54;;;;;;;0.50;0.50;;;;;;;13.31;77.63;97020.37;29395;205;63005;-60
2021/07/02 01:03:26;;;;;;;0.50;0.50;;;;;;;13.32;77.39;97013.81;29395;208;63019;-58
2021/07/02 01:03:57;;;;;;;0.50;0.50;;;;;;;13.35;77.30;97015.91;29395;227;63004;-59
2021/07/02 01:04:29;;;;;;;0.50;0.50;;;;;;;13.36;77.06;97012.06;29395;202;63009;-59
2021/07/02 01:05:00;;;;;;;0.50;0.50;;;;;;;13.32;77.13;97013.81;29394;207;64009;-58
2021/07/02 01:05:32;;;;;;;0.50;0.50;;;;;;;13.31;77.19;97011.38;29395;255;63009;-59
2021/07/02 01:06:07;;;;;;;0.50;0.50;;;;;;;13.31;77.50;97006.75;29395;199;63004;-58
2021/07/02 01:06:38;;;;;;;0.50;0.50;;;;;;;13.29;77.71;97008.97;29395;299;63008;-59
2021/07/02 01:07:13;;;;;;;0.50;0.50;;;;;;;13.26;77.79;97004.13;29395;236;63005;-60
2021/07/02 01:07:45;;;;;;;0.47;0.47;;;;;;;13.24;77.95;97011.81;29395;222;63009;-59
2021/07/02 01:08:19;;;;;;;0.50;0.50;;;;;;;13.22;78.34;97014.03;29395;299;63005;-59
2021/07/02 01:08:50;;;;;;;0.50;0.50;;;;;;;13.21;78.26;97014.31;29394;222;64004;-60
2021/07/02 01:09:25;;;;;;;0.50;0.50;;;;;;;13.18;78.20;97007.56;29395;205;63005;-59
2021/07/02 01:09:57;;;;;;;0.43;0.43;;;;;;;13.16;78.11;97004.38;29395;203;63009;-58
2021/07/02 01:10:29;;;;;;;0.50;0.50;;;;;;;13.15;78.46;97007.38;29395;218;63005;-60
2021/07/02 01:11:00;;;;;;;0.50;0.50;;;;;;;13.14;78.33;97020.19;29395;214;63009;-59
2021/07/02 01:11:33;;;;;;;0.50;0.50;;;;;;;13.18;78.71;97012.22;29395;218;63004;-59
2021/07/02 01:12:05;;;;;;;0.50;0.50;;;;;;;13.21;77.95;97017.84;29395;220;63014;-59
2021/07/02 01:12:37;;;;;;;0.50;0.50;;;;;;;13.19;78.07;97014.63;29394;253;64009;-60
2021/07/02 01:13:09;;;;;;;0.50;0.50;;;;;;;13.16;79.07;97009.03;29395;233;63009;-59
2021/07/02 01:13:41;;;;;;;0.50;0.50;;;;;;;13.12;79.20;97019.69;29395;213;63004;-59
2021/07/02 01:14:13;;;;;;;0.50;0.50;;;;;;;13.11;78.78;97011.81;29395;286;63008;-59
2021/07/02 01:14:44;;;;;;;0.50;0.50;;;;;;;13.08;78.93;97008.59;29395;197;63005;-59
2021/07/02 01:15:33;;;;;;;0.40;0.40;;;;;;;13.07;78.98;97017.06;29395;203;63009;-59
2021/07/02 01:16:05;;;;;;;0.50;0.50;;;;;;;13.06;79.16;97021.72;29395;241;63005;-58
2021/07/02 01:16:40;;;;;;;0.50;0.50;;;;;;;13.05;78.92;97016.56;29394;252;64033;-58
2021/07/02 01:17:12;;;;;;;0.98;0.98;;;;;;;13.05;78.93;97020.09;29395;221;63005;-59
2021/07/02 01:17:43;;;;;;;0.50;0.50;;;;;;;13.04;78.98;97009.50;29395;214;63009;-60
2021/07/02 01:18:15;;;;;;;0.50;0.50;;;;;;;13.03;78.95;97011.41;29394;221;64009;-59
2021/07/02 01:18:46;;;;;;;0.50;0.50;;;;;;;13.03;78.99;97021.50;29395;226;63009;-59
2021/07/02 01:19:18;;;;;;;0.50;0.50;;;;;;;13.03;78.93;97018.78;29395;216;63009;-59
2021/07/02 01:19:52;;;;;;;0.50;0.50;;;;;;;13.04;79.03;97012.22;29395;199;63009;-59
2021/07/02 01:20:24;;;;;;;0.50;0.50;;;;;;;13.05;78.75;97008.41;29395;196;63004;-58
2021/07/02 01:20:56;;;;;;;0.50;0.50;;;;;;;13.05;78.56;97019.28;29395;272;63009;-58
2021/07/02 01:21:27;;;;;;;0.50;0.50;;;;;;;13.06;78.44;97015.47;29395;236;63004;-59
2021/07/02 01:21:59;;;;;;;0.50;0.50;;;;;;;13.13;77.95;97017.78;29395;226;63008;-60
2021/07/02 01:22:31;;;;;;;0.50;0.50;;;;;;;13.14;77.65;97017.47;29394;242;64009;-56
2021/07/02 01:23:04;;;;;;;0.50;0.50;;;;;;;13.14;77.65;97014.75;29395;219;63018;-59
2021/07/02 01:23:40;;;;;;;0.50;0.50;;;;;;;13.14;77.93;97005.75;29395;242;63005;-57
2021/07/02 01:24:11;;;;;;;0.50;0.50;;;;;;;13.14;77.94;97012.00;29395;219;63005;-59
2021/07/02 01:24:42;;;;;;;0.50;0.50;;;;;;;13.13;78.00;97013.13;29395;240;63005;-60
2021/07/02 01:25:14;;;;;;;0.50;0.50;;;;;;;13.12;78.11;97011.50;29395;212;63009;-59
2021/07/02 01:25:46;;;;;;;0.50;0.50;;;;;;;13.13;78.19;97013.13;29395;207;63005;-59
2021/07/02 01:26:18;;;;;;;0.50;0.50;;;;;;;13.12;78.13;97014.25;29395;210;63009;-59
2021/07/02 01:26:51;;;;;;;0.50;0.50;;;;;;;13.12;78.13;97014.25;29394;205;64009;-60
2021/07/02 01:27:23;;;;;;;0.50;0.50;;;;;;;13.11;77.88;97011.81;29395;196;63009;-60
2021/07/02 01:27:54;;;;;;;0.50;0.50;;;;;;;13.08;78.78;97007.78;29394;210;64009;-59
2021/07/02 01:28:26;;;;;;;0.50;0.50;;;;;;;13.05;78.38;97008.41;29395;208;63009;-58
2021/07/02 01:28:59;;;;;;;0.50;0.50;;;;;;;13.04;78.66;97007.59;29395;205;63004;-59
2021/07/02 01:29:30;;;;;;;0.50;0.50;;;;;;;13.05;78.55;97016.56;29395;218;63008;-59
2021/07/02 01:30:02;;;;;;;0.50;0.50;;;;;;;13.09;78.50;97009.41;29395;208;63005;-60
2021/07/02 01:30:34;;;;;;;0.50;0.50;;;;;;;13.12;77.63;97011.50;29395;209;63009;-60
2021/07/02 01:31:06;;;;;;;0.50;0.50;;;;;;;13.12;77.92;97013.44;29395;383;63017;-60
2021/07/02 01:31:38;;;;;;;0.50;0.50;;;;;;;13.10;77.80;97013.75;29394;245;64013;-59
2021/07/02 01:32:10;;;;;;;0.50;0.50;;;;;;;13.09;77.83;97012.13;29395;235;63005;-60
2021/07/02 01:32:41;;;;;;;0.50;0.50;;;;;;;13.08;77.63;97010.50;29395;218;63009;-59
2021/07/02 01:33:16;;;;;;;0.50;0.50;;;;;;;13.06;78.07;97012.72;29395;227;63005;-59
2021/07/02 01:33:48;;;;;;;0.50;0.50;;;;;;;13.06;77.88;97010.00;29395;240;63009;-59
2021/07/02 01:34:19;;;;;;;0.50;0.50;;;;;;;13.05;78.30;97013.84;29395;208;63004;-59
2021/07/02 01:34:50;;;;;;;0.50;0.50;;;;;;;13.05;78.09;97024.75;29395;203;63009;-58
2021/07/02 01:35:22;;;;;;;0.50;0.50;;;;;;;13.08;78.13;97014.03;29394;245;64004;-60
2021/07/02 01:35:53;;;;;;;0.50;0.50;;;;;;;13.09;77.84;97009.41;29395;211;63009;-60
2021/07/02 01:36:26;;;;;;;0.40;0.40;;;;;;;13.07;78.79;97006.97;29395;206;63017;-59
2021/07/02 01:36:57;;;;;;;0.50;0.50;;;;;;;13.06;78.54;97010.00;29394;229;64013;-57
2021/07/02 01:37:28;;;;;;;0.50;0.50;;;;;;;13.07;78.42;97011.63;29394;200;64009;-59
2021/07/02 01:38:00;;;;;;;0.50;0.50;;;;;;;13.13;77.60;97015.03;29395;245;63020;-58
2021/07/02 01:38:31;;;;;;;0.45;0.45;;;;;;;13.13;77.60;97010.41;29395;251;63017;-58
2021/07/02 01:39:05;;;;;;;0.50;0.50;;;;;;;13.11;77.81;97018.06;29395;255;63017;-59
2021/07/02 01:39:37;;;;;;;0.45;0.45;;;;;;;13.09;77.95;97014.84;29395;204;63005;-60
2021/07/02 01:40:12;;;;;;;0.50;0.50;;;;;;;13.06;78.16;97015.47;29395;221;63009;-59
2021/07/02 01:40:44;;;;;;;0.50;0.50;;;;;;;13.05;78.29;97019.28;29395;229;63005;-58
2021/07/02 01:41:15;;;;;;;0.50;0.50;;;;;;;13.02;78.13;97007.09;29395;255;63009;-59
2021/07/02 01:41:50;;;;;;;0.50;0.50;;;;;;;13.01;78.16;97024.53;29395;302;63008;-59
2021/07/02 01:42:21;;;;;;;0.50;0.50;;;;;;;12.99;78.19;97015.88;29394;204;64013;-58
2021/07/02 01:42:55;;;;;;;0.40;0.40;;;;;;;12.99;78.52;97017.78;29395;220;63004;-60
2021/07/02 01:43:27;;;;;;;0.50;0.50;;;;;;;13.01;78.66;97015.56;29395;224;63009;-58
2021/07/02 01:43:58;;;;;;;0.50;0.50;;;;;;;13.04;78.09;97025.84;29394;252;64009;-59
2021/07/02 01:44:29;;;;;;;0.50;0.50;;;;;;;13.03;78.07;97007.91;29395;208;63008;-58
2021/07/02 01:45:01;;;;;;;0.50;0.50;;;;;;;13.04;78.19;97020.41;29394;293;64009;-60
2021/07/02 01:45:32;;;;;;;0.50;0.50;;;;;;;13.01;78.03;97019.09;29395;218;63009;-60
2021/07/02 01:46:04;;;;;;;0.50;0.50;;;;;;;13.00;78.44;97016.66;29395;243;63005;-59
2021/07/02 01:46:35;;;;;;;0.45;0.45;;;;;;;12.98;78.21;97016.16;29395;210;63009;-58
2021/07/02 01:47:07;;;;;;;0.50;0.50;;;;;;;13.00;78.36;97022.13;29395;221;63005;-59
2021/07/02 01:47:38;;;;;;;0.50;0.50;;;;;;;13.03;78.56;97016.06;29394;229;64013;-59
2021/07/02 01:48:09;;;;;;;0.50;0.50;;;;;;;13.04;78.05;97017.69;29394;271;64009;-57
2021/07/02 01:48:44;;;;;;;0.50;0.50;;;;;;;13.03;77.77;97021.50;29395;219;63027;-59
2021/07/02 01:49:19;;;;;;;0.50;0.50;;;;;;;13.05;77.98;97008.41;29395;218;63004;-59
2021/07/02 01:49:51;;;;;;;0.50;0.50;;;;;;;13.06;77.61;97021.72;29395;239;63009;-60
2021/07/02 01:50:25;;;;;;;0.50;0.50;;;;;;;13.06;77.57;97020.91;29395;263;63004;-60
2021/07/02 01:50:57;;;;;;;0.50;0.50;;;;;;;13.09;77.51;97012.13;29395;315;63014;-59
2021/07/02 01:51:28;;;;;;;0.50;0.50;;;;;;;13.11;77.06;97017.28;29395;224;63004;-59
2021/07/02 01:52:00;;;;;;;0.50;0.50;;;;;;;13.12;76.96;97021.59;29394;214;64008;-60
2021/07/02 01:52:31;;;;;;;0.50;0.50;;;;;;;13.11;77.27;97012.63;29395;232;63005;-59
2021/07/02 01:53:03;;;;;;;0.50;0.50;;;;;;;13.09;77.32;97026.56;29394;303;64014;-59
2021/07/02 01:53:34;;;;;;;0.50;0.50;;;;;;;13.09;76.93;97020.28;29395;235;63005;-59
2021/07/02 01:54:06;;;;;;;0.50;0.50;;;;;;;13.13;76.97;97021.31;29395;207;63009;-59
2021/07/02 01:54:37;;;;;;;0.50;0.50;;;;;;;13.12;77.14;97030.59;29395;214;63005;-60
2021/07/02 01:55:10;;;;;;;0.50;0.50;;;;;;;13.13;76.83;97026.75;29395;200;63009;-60
2021/07/02 01:55:41;;;;;;;0.50;0.50;;;;;;;13.21;76.68;97012.41;29394;205;64009;-54
2021/07/02 01:56:12;;;;;;;0.50;0.50;;;;;;;13.22;76.15;97018.66;29395;205;63009;-59
2021/07/02 01:56:48;;;;;;;0.50;0.50;;;;;;;13.19;76.54;97020.09;29394;218;63994;-61
2021/07/02 01:57:27;;;;;;;0.50;0.50;;;;;;;13.14;76.72;97022.91;29395;197;63009;-59
2021/07/02 01:57:59;;;;;;;0.50;0.50;;;;;;;13.09;77.29;97026.56;29395;215;63016;-59
2021/07/02 01:58:34;;;;;;;0.50;0.50;;;;;;;13.06;77.29;97026.34;29394;214;64013;-59
2021/07/02 01:59:05;;;;;;;0.50;0.50;;;;;;;13.02;77.48;97020.72;29395;218;63007;-60
2021/07/02 01:59:36;;;;;;;0.50;0.50;;;;;;;13.05;77.19;97025.53;29395;253;63008;-59
2021/07/02 02:00:08;;;;;;;0.50;0.50;;;;;;;13.06;77.30;97031.81;29395;224;63005;-59
2021/07/02 02:00:40;;;;;;;0.50;0.50;;;;;;;13.13;76.62;97021.31;29395;199;63009;-59
2021/07/02 02:01:11;;;;;;;0.40;0.40;;;;;;;13.16;76.49;97020.72;29395;218;63009;-59
2021/07/02 02:01:43;;;;;;;0.50;0.50;;;;;;;13.13;76.27;97032.19;29395;219;63009;-59
2021/07/02 02:02:15;;;;;;;0.50;0.50;;;;;;;13.09;76.50;97025.75;29395;252;63005;-59
2021/07/02 02:02:46;;;;;;;0.50;0.50;;;;;;;13.05;76.76;97025.53;29395;257;63009;-60
2021/07/02 02:03:17;;;;;;;0.50;0.50;;;;;;;13.03;77.18;97021.50;29395;197;63004;-59
2021/07/02 02:03:52;;;;;;;0.50;0.50;;;;;;;13.03;76.85;97018.78;29394;265;64013;-62
2021/07/02 02:04:25;;;;;;;0.50;0.50;;;;;;;13.05;76.94;97025.53;29395;220;63004;-59
2021/07/02 02:04:58;;;;;;;0.50;0.50;;;;;;;13.05;76.82;97022.00;29395;210;63009;-59
2021/07/02 02:05:29;;;;;;;0.50;0.50;;;;;;;13.05;76.82;97024.75;29394;316;64009;-57
2021/07/02 02:06:02;;;;;;;0.50;0.50;;;;;;;13.03;76.61;97014.16;29395;208;63008;-59
2021/07/02 02:06:33;;;;;;;0.50;0.50;;;;;;;13.02;77.07;97023.44;29395;254;63004;-59
2021/07/02 02:07:04;;;;;;;0.50;0.50;;;;;;;13.00;77.05;97019.41;29395;251;63008;-59
2021/07/02 02:07:35;;;;;;;0.50;0.50;;;;;;;12.98;77.63;97018.91;29395;218;63005;-60
2021/07/02 02:08:06;;;;;;;0.50;0.50;;;;;;;12.97;77.52;97023.53;29395;197;63009;-59
2021/07/02 02:08:38;;;;;;;0.50;0.50;;;;;;;12.97;77.41;97022.72;29395;265;63005;-60
2021/07/02 02:09:09;;;;;;;0.50;0.50;;;;;;;12.96;77.32;97021.13;29395;213;63009;-59
2021/07/02 02:09:40;;;;;;;0.50;0.50;;;;;;;12.94;77.73;97026.06;29394;202;64009;-57
2021/07/02 02:10:12;;;;;;;0.50;0.50;;;;;;;12.92;77.58;97025.56;29394;222;64013;-59
2021/07/02 02:10:43;;;;;;;0.50;0.50;;;;;;;12.90;77.81;97016.88;29395;209;63005;-60
2021/07/02 02:11:14;;;;;;;0.50;0.50;;;;;;;12.90;78.11;97027.78;29395;209;63009;-58
2021/07/02 02:11:45;;;;;;;0.50;0.50;;;;;;;12.91;77.95;97024.75;29395;202;63004;-58
2021/07/02 02:12:17;;;;;;;0.50;0.50;;;;;;;12.90;77.75;97022.31;29395;219;63015;-59
2021/07/02 02:12:48;;;;;;;0.50;0.50;;;;;;;12.88;77.60;97013.66;29394;228;64000;-58
2021/07/02 02:13:19;;;;;;;0.47;0.47;;;;;;;12.86;77.70;97027.56;29395;244;63009;-58
2021/07/02 02:13:54;;;;;;;0.50;0.50;;;;;;;12.85;77.81;97019.69;29395;233;63009;-57
2021/07/02 02:14:25;;;;;;;0.50;0.50;;;;;;;12.84;77.75;97018.09;29395;197;63009;-59
2021/07/02 02:14:57;;;;;;;0.50;0.50;;;;;;;12.83;78.12;97016.47;29395;205;63005;-60
2021/07/02 02:15:28;;;;;;;0.50;0.50;;;;;;;12.82;78.02;97017.62;29395;209;63009;-58
2021/07/02 02:15:59;;;;;;;0.50;0.50;;;;;;;12.85;78.21;97014.25;29395;203;63005;-61
2021/07/02 02:16:30;;;;;;;0.50;0.50;;;;;;;12.91;77.36;97023.94;29394;228;64033;-60
2021/07/02 02:17:03;;;;;;;0.50;0.50;;;;;;;12.92;77.57;97017.38;29395;204;63005;-59
2021/07/02 02:17:35;;;;;;;0.50;0.50;;;;;;;12.90;77.45;97012.25;29395;230;63016;-59
2021/07/02 02:18:06;;;;;;;0.50;0.50;;;;;;;12.88;77.60;97014.47;29395;250;63005;-60
2021/07/02 02:18:37;;;;;;;0.50;0.50;;;;;;;12.89;77.54;97009.81;29394;244;64013;-60
2021/07/02 02:19:08;;;;;;;0.50;0.50;;;;;;;12.88;77.73;97011.75;29395;197;63004;-59
2021/07/02 02:19:40;;;;;;;0.50;0.50;;;;;;;12.86;77.64;97015.88;29394;234;64013;-59
2021/07/02 02:20:13;;;;;;;0.50;0.50;;;;;;;12.86;78.08;97013.16;29395;305;63004;-59
2021/07/02 02:20:44;;;;;;;0.50;0.50;;;;;;;12.84;78.18;97018.09;29395;215;63009;-57
2021/07/02 02:21:17;;;;;;;0.50;0.50;;;;;;;12.84;78.30;97008.00;29395;222;63004;-58
2021/07/02 02:21:49;;;;;;;0.50;0.50;;;;;;;12.82;78.31;97009.44;29395;228;63009;-60
2021/07/02 02:22:25;;;;;;;0.50;0.50;;;;;;;12.80;78.33;97014.38;29395;237;63005;-58
2021/07/02 02:22:56;;;;;;;0.47;0.47;;;;;;;12.83;77.96;97016.47;29394;215;64014;-59
2021/07/02 02:23:27;;;;;;;0.50;0.50;;;;;;;12.80;78.07;97012.47;29395;203;63005;-59
2021/07/02 02:24:02;;;;;;;0.50;0.50;;;;;;;12.78;78.69;97011.97;29395;218;63009;-60
2021/07/02 02:24:34;;;;;;;0.50;0.50;;;;;;;12.77;78.94;97015.81;29395;220;63005;-57
2021/07/02 02:25:08;;;;;;;0.50;0.50;;;;;;;12.78;78.21;97003.81;29395;358;63009;-60
2021/07/02 02:25:42;;;;;;;0.50;0.50;;;;;;;12.83;77.87;97017.28;29395;236;63005;-60
2021/07/02 02:26:13;;;;;;;0.50;0.50;;;;;;;12.84;77.59;97012.66;29395;216;63009;-60
2021/07/02 02:26:48;;;;;;;0.50;0.50;;;;;;;12.90;77.17;97011.44;29395;342;63004;-60
2021/07/02 02:27:19;;;;;;;0.50;0.50;;;;;;;12.88;77.34;97008.19;29395;272;63025;-59
2021/07/02 02:27:51;;;;;;;0.50;0.50;;;;;;;12.85;77.30;97014.25;29395;197;63004;-58
2021/07/02 02:28:22;;;;;;;0.50;0.50;;;;;;;12.87;77.64;97012.03;29394;228;64031;-60
2021/07/02 02:28:55;;;;;;;0.50;0.50;;;;;;;12.83;76.78;97005.59;29395;243;63004;-59
2021/07/02 02:29:26;;;;;;;0.50;0.50;;;;;;;12.79;77.36;97008.13;29395;213;63009;-58
2021/07/02 02:29:57;;;;;;;0.50;0.50;;;;;;;12.79;77.71;97015.50;29395;219;63005;-59
2021/07/02 02:30:28;;;;;;;0.50;0.50;;;;;;;12.78;77.67;97014.69;29394;215;64014;-59
2021/07/02 02:30:59;;;;;;;0.50;0.50;;;;;;;12.82;77.80;97009.44;29394;217;63997;-57
2021/07/02 02:31:31;;;;;;;0.50;0.50;;;;;;;12.84;77.12;97012.66;29395;209;63009;-59
2021/07/02 02:32:02;;;;;;;0.50;0.50;;;;;;;12.83;77.04;97014.56;29395;202;63005;-58
2021/07/02 02:32:34;;;;;;;0.50;0.50;;;;;;;12.84;77.38;97009.91;29395;216;63009;-59